Time;durP1;ratioP1;P1;durP2;ratioP2;P2;SDS_P1;SDS_P2;PMS_P1;PMS_P2;Temp;Humidity;BMP_temperature;BMP_pressure;BME280_temperature;BME280_humidity;BME280_pressure;Samples;Min_cycle;Max_cycle;Signal;HPM_P1;HPM_P2
2022/10/11 00:01:13;;;;;;;24.98;10.85;;;;;;;8.69;76.90;102191.41;3580621;40;20049;-61
2022/10/11 00:03:39;;;;;;;22.42;10.43;;;;;;;8.07;77.36;102090.63;3575189;40;20370;-61
2022/10/11 00:06:05;;;;;;;19.88;9.95;;;;;;;8.76;76.69;102203.72;3577277;40;20310;-61
2022/10/11 00:08:32;;;;;;;24.38;9.30;;;;;;;8.45;76.98;102156.44;3586126;40;20045;-62
2022/10/11 00:11:03;;;;;;;18.63;9.82;;;;;;;8.72;76.38;102200.25;3577648;40;20084;-62
2022/10/11 00:13:28;;;;;;;18.85;9.35;;;;;;;8.69;76.31;102212.84;3581114;40;20134;-63
2022/10/11 00:15:54;;;;;;;21.92;10.27;;;;;;;8.66;76.03;102207.59;3578955;40;20057;-61
2022/10/11 00:18:20;;;;;;;23.45;9.80;;;;;;;8.64;76.90;102204.09;3578190;40;20051;-62
2022/10/11 00:20:46;;;;;;;16.50;8.25;;;;;;;8.60;76.29;102204.19;3573831;40;20061;-62
2022/10/11 00:23:11;;;;;;;22.65;9.05;;;;;;;8.49;76.04;102195.59;3587812;40;20060;-63
2022/10/11 00:25:38;;;;;;;20.13;8.85;;;;;;;7.81;76.20;102094.97;3576885;40;20049;-63
2022/10/11 00:28:04;;;;;;;20.65;9.65;;;;;;;8.45;76.38;102212.69;3580962;40;20049;-63
2022/10/11 00:30:30;;;;;;;21.77;9.93;;;;;;;7.72;77.76;102099.72;3580988;40;20048;-62
2022/10/11 00:32:56;;;;;;;19.20;8.57;;;;;;;8.33;78.37;102213.91;3576958;40;20051;-62
2022/10/11 00:35:21;;;;;;;21.63;9.02;;;;;;;8.32;78.92;102214.84;3577300;40;20353;-63
2022/10/11 00:37:47;;;;;;;19.08;8.15;;;;;;;8.31;78.33;102212.22;3581822;40;20307;-62
2022/10/11 00:40:19;;;;;;;17.38;8.02;;;;;;;8.27;77.75;102222.13;3581131;40;20052;-62
2022/10/11 00:42:46;;;;;;;16.90;8.25;;;;;;;8.23;78.58;102225.84;3579447;40;20059;-63
2022/10/11 00:45:56;;;;;;;20.17;9.27;;;;;;;8.26;78.49;102227.56;3577194;40;20072;-63
2022/10/11 00:48:48;;;;;;;19.70;8.32;;;;;;;8.23;78.18;102219.59;3551128;40;20048;-62
2022/10/11 00:51:45;;;;;;;20.77;7.75;;;;;;;7.53;76.96;102116.31;3580316;40;20061;-63
2022/10/11 00:54:17;;;;;;;15.23;7.10;;;;;;;8.17;76.75;102235.84;3576374;40;20385;-62
2022/10/11 00:56:52;;;;;;;16.45;7.78;;;;;;;7.60;76.68;102138.41;3577102;40;20060;-62
2022/10/11 00:59:26;;;;;;;17.63;8.00;;;;;;;8.14;76.98;102236.81;3580088;40;20442;-62
2022/10/11 01:01:53;;;;;;;17.50;7.57;;;;;;;8.11;76.14;102237.78;3575773;40;20060;-62
2022/10/11 01:04:19;;;;;;;19.60;8.30;;;;;;;8.10;76.07;102240.50;3580034;40;20048;-63
2022/10/11 01:06:48;;;;;;;15.73;8.10;;;;;;;8.09;76.77;102242.31;3580679;40;20057;-62
2022/10/11 01:09:13;;;;;;;16.25;7.10;;;;;;;7.99;77.24;102240.84;3581379;40;20398;-63
2022/10/11 01:11:42;;;;;;;13.88;7.43;;;;;;;7.47;77.55;102151.25;3577221;40;20071;-62
2022/10/11 01:14:59;;;;;;;16.95;7.32;;;;;;;7.98;77.58;102238.19;3581381;40;20061;-63
2022/10/11 01:17:49;;;;;;;13.77;6.43;;;;;;;7.96;77.80;102237.34;3574556;40;20059;-63
2022/10/11 01:20:23;;;;;;;16.55;7.32;;;;;;;7.88;78.07;102240.25;3574897;40;20081;-62
2022/10/11 01:23:15;;;;;;;16.60;7.05;;;;;;;7.85;78.46;102243.00;3576858;40;20059;-63
2022/10/11 01:26:44;;;;;;;16.92;6.90;;;;;;;7.80;77.60;102243.16;3576316;40;20100;-63
2022/10/11 01:29:41;;;;;;;15.73;7.15;;;;;;;7.81;78.07;102246.69;3572886;40;20059;-63
2022/10/11 01:32:09;;;;;;;14.60;6.97;;;;;;;7.81;77.88;102250.25;3576800;40;20053;-63
2022/10/11 01:34:54;;;;;;;14.52;7.00;;;;;;;7.71;77.77;102234.47;3574844;40;20057;-62
2022/10/11 01:37:34;;;;;;;13.38;6.03;;;;;;;7.78;77.46;102249.44;3578902;40;20311;-63
2022/10/11 01:40:17;;;;;;;14.50;6.72;;;;;;;7.76;77.44;102251.28;3579887;40;20075;-63
2022/10/11 01:42:44;;;;;;;12.73;6.93;;;;;;;7.77;77.85;102251.25;3579943;40;20383;-63
2022/10/11 01:45:16;;;;;;;18.10;6.32;;;;;;;7.67;77.68;102239.91;3578957;40;20075;-62
2022/10/11 01:47:44;;;;;;;15.05;6.80;;;;;;;7.72;77.45;102246.94;3577170;40;20059;-63
2022/10/11 01:50:43;;;;;;;14.85;7.65;;;;;;;7.66;78.08;102246.19;3578138;40;20125;-62
2022/10/11 01:54:03;;;;;;;18.80;7.93;;;;;;;7.62;78.45;102263.25;3578553;40;20360;-63
2022/10/11 01:56:50;;;;;;;14.38;7.32;;;;;;;7.56;78.59;102255.38;3558704;40;20056;-63
2022/10/11 01:59:34;;;;;;;16.52;6.45;;;;;;;7.53;79.01;102257.25;3577050;40;20454;-63
2022/10/11 02:02:50;;;;;;;18.98;7.32;;;;;;;7.50;79.31;102263.56;3582123;40;20067;-63
2022/10/11 02:06:19;;;;;;;11.75;6.40;;;;;;;7.45;78.54;102268.13;3572113;40;20160;-62
2022/10/11 02:09:21;;;;;;;13.98;6.57;;;;;;;7.36;77.86;102245.19;3579486;40;20108;-62
2022/10/11 02:11:46;;;;;;;14.73;6.50;;;;;;;7.41;77.83;102261.13;3576841;40;20406;-63
2022/10/11 02:14:25;;;;;;;13.43;7.18;;;;;;;7.41;79.00;102263.78;3575188;40;20056;-62
2022/10/11 02:17:03;;;;;;;16.50;7.05;;;;;;;7.41;78.52;102263.78;3580201;40;20057;-62
2022/10/11 02:19:41;;;;;;;13.20;6.53;;;;;;;7.41;78.74;102271.81;3577518;40;20141;-62
2022/10/11 02:22:18;;;;;;;13.88;7.15;;;;;;;7.41;78.83;102267.34;3573172;40;20056;-63
2022/10/11 02:24:51;;;;;;;13.88;6.50;;;;;;;7.41;79.05;102263.78;3574653;40;20111;-63
2022/10/11 02:27:24;;;;;;;13.98;6.65;;;;;;;6.59;78.22;102131.25;3574453;40;20072;-63
2022/10/11 02:29:55;;;;;;;15.85;6.65;;;;;;;6.54;77.91;102138.53;3575028;40;20083;-63
2022/10/11 02:32:26;;;;;;;13.05;6.28;;;;;;;7.30;78.34;102266.75;3574555;40;20130;-62
2022/10/11 02:34:56;;;;;;;16.73;6.10;;;;;;;7.29;78.09;102266.78;3576634;40;20380;-62
2022/10/11 02:37:22;;;;;;;10.40;6.40;;;;;;;7.31;78.05;102272.97;3574175;40;20056;-62
2022/10/11 02:39:57;;;;;;;11.93;5.53;;;;;;;7.19;77.47;102250.94;3575233;40;20052;-62
2022/10/11 02:42:32;;;;;;;16.70;6.50;;;;;;;7.30;77.29;102268.56;3574467;40;20084;-62
2022/10/11 02:45:09;;;;;;;13.63;6.07;;;;;;;7.24;77.24;102258.00;3577784;40;20112;-63
2022/10/11 02:47:36;;;;;;;17.38;6.32;;;;;;;7.18;77.44;102257.22;3577100;40;20056;-62
2022/10/11 02:50:02;;;;;;;14.10;6.05;;;;;;;7.21;78.47;102259.81;3576367;40;20171;-62
2022/10/11 02:52:28;;;;;;;16.35;6.43;;;;;;;7.22;79.10;102256.22;3577488;40;20418;-62
2022/10/11 02:54:54;;;;;;;11.75;6.25;;;;;;;7.21;78.86;102262.50;3575590;40;20056;-62
2022/10/11 02:57:19;;;;;;;11.23;6.22;;;;;;;7.19;78.57;102266.13;3575938;40;20075;-62
2022/10/11 02:59:45;;;;;;;13.07;6.18;;;;;;;7.17;78.52;102265.31;3576163;40;20083;-62
2022/10/11 03:02:11;;;;;;;13.25;7.00;;;;;;;7.14;79.02;102274.28;3575933;40;20068;-62
2022/10/11 03:04:36;;;;;;;15.00;6.90;;;;;;;7.12;78.52;102270.75;3575239;40;20067;-63
2022/10/11 03:07:02;;;;;;;14.10;6.30;;;;;;;7.09;78.59;102276.16;3573990;40;21204;-62
2022/10/11 03:09:27;;;;;;;14.32;6.65;;;;;;;7.07;78.13;102283.38;3580052;40;20044;-62
2022/10/11 03:11:53;;;;;;;10.85;6.45;;;;;;;7.05;78.62;102279.84;3575489;40;20055;-62
2022/10/11 03:14:19;;;;;;;10.27;6.47;;;;;;;7.03;78.49;102280.78;3575004;40;20369;-62
2022/10/11 03:16:44;;;;;;;16.10;6.32;;;;;;;7.03;78.18;102278.13;3574130;40;20057;-64
2022/10/11 03:19:10;;;;;;;12.57;6.80;;;;;;;7.03;78.06;102280.78;3575866;40;20051;-62
2022/10/11 03:21:36;;;;;;;15.75;6.78;;;;;;;6.20;78.25;102147.31;3573908;40;20048;-62
2022/10/11 03:24:02;;;;;;;12.07;6.22;;;;;;;6.91;77.73;102269.47;3576103;40;20656;-62
2022/10/11 03:26:28;;;;;;;10.38;5.97;;;;;;;6.95;77.95;102289.00;3576066;40;20167;-62
2022/10/11 03:28:54;;;;;;;16.88;6.50;;;;;;;6.94;77.22;102287.22;3572506;40;20056;-62
2022/10/11 03:31:20;;;;;;;12.45;6.60;;;;;;;6.26;77.36;102176.53;3577103;40;20063;-62
2022/10/11 03:33:46;;;;;;;15.43;6.72;;;;;;;6.85;77.65;102280.31;3571902;40;20100;-62
2022/10/11 03:36:12;;;;;;;14.00;6.38;;;;;;;6.84;78.77;102291.03;3574990;40;20402;-62
2022/10/11 03:38:38;;;;;;;11.60;6.60;;;;;;;6.87;78.83;102291.81;3573727;40;20295;-62
2022/10/11 03:41:04;;;;;;;10.75;6.63;;;;;;;6.87;79.04;102290.94;3576028;40;20065;-62
2022/10/11 03:43:29;;;;;;;15.55;7.50;;;;;;;6.85;78.81;102292.78;3575178;40;20068;-63
2022/10/11 03:45:55;;;;;;;16.52;6.57;;;;;;;6.85;78.42;102298.13;3578291;40;20056;-63
2022/10/11 03:48:21;;;;;;;11.45;6.75;;;;;;;6.81;78.32;102302.66;3575985;40;20048;-63
2022/10/11 03:50:48;;;;;;;9.13;6.10;;;;;;;6.79;78.83;102299.16;3577558;40;20056;-62
2022/10/11 03:53:13;;;;;;;13.63;6.63;;;;;;;6.79;79.03;102303.59;3574169;40;20052;-62
2022/10/11 03:55:40;;;;;;;15.52;7.00;;;;;;;6.77;78.91;102306.31;3574129;40;20052;-63
2022/10/11 03:58:06;;;;;;;10.60;6.38;;;;;;;6.71;78.44;102296.63;3574062;40;20111;-62
2022/10/11 04:00:33;;;;;;;12.32;6.93;;;;;;;5.97;77.53;102189.66;3574422;40;20052;-62
2022/10/11 04:02:59;;;;;;;12.50;6.32;;;;;;;6.73;77.68;102313.53;3575403;40;20083;-62
2022/10/11 04:05:25;;;;;;;13.13;6.00;;;;;;;6.74;78.00;102312.59;3576765;40;20379;-62
2022/10/11 04:07:51;;;;;;;11.02;6.47;;;;;;;6.69;77.91;102314.53;3575618;40;20076;-62
2022/10/11 04:10:17;;;;;;;13.50;6.40;;;;;;;6.66;78.85;102306.56;3580567;40;20410;-63
2022/10/11 04:12:42;;;;;;;16.02;7.15;;;;;;;6.72;78.22;102310.88;3577386;40;20052;-62
2022/10/11 04:15:12;;;;;;;12.32;6.47;;;;;;;6.72;78.73;102316.22;3579062;40;20089;-62
2022/10/11 04:17:39;;;;;;;10.52;5.97;;;;;;;6.62;78.45;102299.50;3574259;40;20126;-62
2022/10/11 04:20:06;;;;;;;12.88;7.07;;;;;;;6.70;78.75;102316.28;3574605;40;20417;-62
2022/10/11 04:22:32;;;;;;;12.65;6.68;;;;;;;6.70;79.05;102316.28;3573193;40;20056;-63
2022/10/11 04:24:58;;;;;;;12.63;7.28;;;;;;;6.69;79.17;102318.97;3580856;40;20296;-62
2022/10/11 04:27:27;;;;;;;11.20;6.25;;;;;;;6.69;78.58;102325.22;3574005;40;20075;-62
2022/10/11 04:29:53;;;;;;;12.38;6.50;;;;;;;6.67;79.71;102329.69;3573706;40;20376;-63
2022/10/11 04:32:19;;;;;;;13.07;6.97;;;;;;;6.57;79.18;102319.25;3573368;40;20060;-63
2022/10/11 04:34:45;;;;;;;17.23;6.63;;;;;;;5.96;79.00;102225.22;3573911;40;20067;-62
2022/10/11 04:37:11;;;;;;;11.15;7.03;;;;;;;6.68;78.51;102339.47;3582039;40;20048;-62
2022/10/11 04:39:37;;;;;;;17.13;6.97;;;;;;;6.69;77.69;102335.91;3575680;40;20045;-62
2022/10/11 04:42:04;;;;;;;13.65;7.85;;;;;;;6.70;78.03;102343.00;3573870;40;20065;-62
2022/10/11 04:44:30;;;;;;;12.35;6.45;;;;;;;6.72;77.00;102338.50;3575043;40;20375;-63
2022/10/11 04:46:57;;;;;;;11.93;7.07;;;;;;;6.68;77.92;102328.78;3582193;40;20049;-62
2022/10/11 04:49:23;;;;;;;16.50;6.22;;;;;;;6.73;77.78;102337.59;3574940;40;20055;-63
2022/10/11 04:51:48;;;;;;;14.70;6.75;;;;;;;6.73;77.82;102342.06;3574513;40;20072;-62
2022/10/11 04:54:14;;;;;;;10.45;6.10;;;;;;;6.73;77.87;102342.06;3573665;40;20060;-62
2022/10/11 04:56:40;;;;;;;17.25;6.22;;;;;;;6.70;77.20;102353.69;3577619;40;20060;-62
2022/10/11 04:59:05;;;;;;;11.27;5.78;;;;;;;6.25;77.31;102276.25;3575183;40;20277;-63
2022/10/11 05:01:31;;;;;;;14.55;7.00;;;;;;;6.12;77.14;102241.81;3575470;40;20079;-63
2022/10/11 05:03:57;;;;;;;12.48;6.80;;;;;;;6.70;77.35;102340.31;3582000;40;20055;-64
2022/10/11 05:06:22;;;;;;;14.85;6.50;;;;;;;6.70;78.38;102347.47;3577712;40;20056;-63
2022/10/11 05:08:48;;;;;;;14.60;6.13;;;;;;;6.59;78.18;102333.44;3575021;40;20133;-62
2022/10/11 05:11:16;;;;;;;15.38;6.10;;;;;;;6.67;77.91;102353.75;3578295;40;20044;-62
2022/10/11 05:13:43;;;;;;;17.83;7.18;;;;;;;6.65;77.75;102349.34;3578142;40;20072;-63
2022/10/11 05:16:10;;;;;;;12.45;6.30;;;;;;;6.61;78.06;102347.66;3575494;40;20056;-63
2022/10/11 05:18:35;;;;;;;12.25;6.97;;;;;;;5.47;77.94;102151.47;3576394;40;20422;-63
2022/10/11 05:21:07;;;;;;;9.52;5.65;;;;;;;6.10;78.40;102268.56;3582481;40;20072;-63
2022/10/11 05:23:35;;;;;;;11.75;6.05;;;;;;;6.61;77.71;102353.00;3577652;40;20056;-63
2022/10/11 05:26:02;;;;;;;11.13;6.18;;;;;;;6.58;77.46;102361.94;3575564;40;20070;-63
2022/10/11 05:28:28;;;;;;;15.38;6.80;;;;;;;6.58;77.74;102359.28;3574748;40;20055;-63
2022/10/11 05:30:54;;;;;;;12.05;6.60;;;;;;;6.53;77.95;102350.47;3574470;40;20056;-63
2022/10/11 05:33:20;;;;;;;11.80;6.35;;;;;;;6.57;78.26;102356.66;3579268;40;20048;-63
2022/10/11 05:35:46;;;;;;;12.15;6.60;;;;;;;5.94;78.21;102253.75;3576645;40;20059;-63
2022/10/11 05:38:12;;;;;;;15.85;6.95;;;;;;;6.56;78.41;102366.44;3580745;40;20381;-63
2022/10/11 05:40:38;;;;;;;13.68;6.95;;;;;;;5.48;78.36;102183.44;3576209;40;20063;-63
2022/10/11 05:43:05;;;;;;;11.35;7.28;;;;;;;6.55;79.11;102364.69;3575080;40;20371;-65
2022/10/11 05:45:39;;;;;;;12.27;7.10;;;;;;;6.54;78.78;102368.28;3578476;40;20122;-63
2022/10/11 05:48:05;;;;;;;13.20;6.88;;;;;;;6.54;78.46;102375.41;3576462;40;20065;-63
2022/10/11 05:50:31;;;;;;;11.68;5.97;;;;;;;6.46;78.02;102368.41;3577197;40;20106;-65
2022/10/11 05:52:57;;;;;;;13.65;7.00;;;;;;;6.48;78.25;102374.63;3576110;40;20053;-63
2022/10/11 05:55:23;;;;;;;10.98;5.72;;;;;;;5.88;77.57;102280.53;3575009;40;20052;-63
2022/10/11 05:57:55;;;;;;;12.88;6.57;;;;;;;6.46;78.37;102380.88;3575841;40;20055;-63
2022/10/11 06:00:22;;;;;;;15.63;6.40;;;;;;;6.47;78.76;102378.22;3575609;40;20056;-62
2022/10/11 06:02:48;;;;;;;10.90;5.97;;;;;;;6.51;79.06;102377.22;3575813;40;20055;-62
2022/10/11 06:05:14;;;;;;;16.45;6.53;;;;;;;6.54;78.71;102388.78;3575281;40;20060;-62
2022/10/11 06:07:40;;;;;;;13.05;6.50;;;;;;;6.53;78.31;102390.53;3575357;40;20053;-62
2022/10/11 06:10:07;;;;;;;10.95;6.32;;;;;;;6.56;78.62;102398.50;3580170;40;20049;-62
2022/10/11 06:12:33;;;;;;;12.60;6.45;;;;;;;6.58;78.03;102396.69;3585100;40;20127;-63
2022/10/11 06:14:58;;;;;;;11.73;6.78;;;;;;;6.58;78.14;102402.03;3576795;40;20303;-62
2022/10/11 06:17:24;;;;;;;9.65;6.05;;;;;;;6.56;77.78;102393.16;3576684;40;20122;-62
2022/10/11 06:19:50;;;;;;;12.05;6.70;;;;;;;6.57;78.41;102394.94;3580665;40;20449;-62
2022/10/11 06:22:17;;;;;;;10.40;5.95;;;;;;;6.57;77.65;102400.28;3576999;40;20098;-62
2022/10/11 06:24:43;;;;;;;13.80;6.10;;;;;;;6.60;78.13;102405.56;3578331;40;20053;-62
2022/10/11 06:27:10;;;;;;;12.20;6.65;;;;;;;6.61;78.62;102406.44;3581202;40;20190;-62
2022/10/11 06:29:36;;;;;;;10.43;6.57;;;;;;;6.56;78.54;102393.16;3578800;40;20469;-63
2022/10/11 06:32:01;;;;;;;16.23;7.22;;;;;;;6.07;78.41;102307.78;3575984;40;20056;-62
2022/10/11 06:34:27;;;;;;;10.48;6.95;;;;;;;6.58;78.64;102394.00;3579941;40;20398;-62
2022/10/11 06:36:53;;;;;;;11.00;7.07;;;;;;;6.68;78.35;102419.63;3578439;40;20056;-63
2022/10/11 06:39:18;;;;;;;14.27;6.97;;;;;;;6.71;78.92;102422.25;3575252;40;20049;-62
2022/10/11 06:41:44;;;;;;;13.32;7.15;;;;;;;6.67;79.16;102404.50;3582612;40;20292;-62
2022/10/11 06:44:12;;;;;;;17.70;7.70;;;;;;;6.17;79.04;102304.03;3579145;40;20056;-62
2022/10/11 06:46:38;;;;;;;17.20;9.13;;;;;;;6.94;78.85;102426.22;3576701;40;20065;-62
2022/10/11 06:49:04;;;;;;;13.02;7.50;;;;;;;7.01;78.67;102419.88;3576719;40;20071;-63
2022/10/11 06:51:29;;;;;;;12.05;7.85;;;;;;;7.06;78.52;102423.28;3576899;40;20060;-62
2022/10/11 06:53:58;;;;;;;13.98;8.30;;;;;;;7.13;79.29;102424.03;3574002;40;20040;-62
2022/10/11 06:56:27;;;;;;;13.27;8.27;;;;;;;6.68;78.75;102339.47;3574539;40;20052;-62
2022/10/11 06:58:54;;;;;;;17.83;9.13;;;;;;;7.24;78.65;102429.19;3574334;40;20040;-62
2022/10/11 07:01:22;;;;;;;16.17;9.25;;;;;;;7.18;78.79;102409.66;3581123;40;20048;-62
2022/10/11 07:03:52;;;;;;;16.42;8.80;;;;;;;7.35;78.55;102432.47;3576145;40;20060;-63
2022/10/11 07:06:22;;;;;;;13.55;8.82;;;;;;;6.28;79.03;102238.81;3573770;40;20423;-63
2022/10/11 07:08:48;;;;;;;16.02;8.98;;;;;;;7.52;79.65;102440.13;3578767;40;20059;-63
2022/10/11 07:11:18;;;;;;;15.90;9.30;;;;;;;7.03;79.50;102345.81;3577148;40;20055;-62
2022/10/11 07:13:57;;;;;;;17.27;8.82;;;;;;;7.72;79.02;102439.66;3574761;40;20056;-63
2022/10/11 07:16:24;;;;;;;13.05;9.20;;;;;;;7.77;79.93;102427.03;3575188;40;20126;-63
2022/10/11 07:18:59;;;;;;;16.17;9.43;;;;;;;8.03;80.88;102440.66;3576215;40;20299;-63
2022/10/11 07:21:25;;;;;;;15.07;8.98;;;;;;;8.22;80.52;102440.19;3573678;40;20126;-62
2022/10/11 07:23:51;;;;;;;17.48;9.25;;;;;;;8.39;81.10;102443.31;3575394;40;20068;-63
2022/10/11 07:26:18;;;;;;;13.13;8.23;;;;;;;8.57;80.97;102448.19;3578716;40;20045;-62
2022/10/11 07:28:45;;;;;;;14.38;7.82;;;;;;;8.77;80.80;102447.63;3578149;40;20048;-63
2022/10/11 07:31:19;;;;;;;12.40;8.07;;;;;;;9.02;80.54;102455.84;3577711;40;20053;-62
2022/10/11 07:33:45;;;;;;;;;;;;;;;9.23;79.96;102458.84;3579029;40;20076;-63
2022/10/11 07:36:12;;;;;;;12.07;7.68;;;;;;;9.41;78.98;102443.97;3575352;40;19940;-62
2022/10/11 07:38:40;;;;;;;11.32;7.55;;;;;;;9.72;78.37;102457.31;3574772;40;20055;-62
2022/10/11 07:41:07;;;;;;;14.68;8.15;;;;;;;9.35;78.28;102353.78;3575056;40;20316;-63
2022/10/11 07:43:33;;;;;;;14.63;8.13;;;;;;;9.99;78.57;102440.28;3574282;40;20084;-63
2022/10/11 07:46:02;;;;;;;14.38;8.15;;;;;;;10.21;77.47;102444.91;3577417;40;20320;-62
2022/10/11 07:48:31;;;;;;;12.90;8.23;;;;;;;10.46;75.85;102458.41;3573929;40;20045;-63
2022/10/11 07:51:13;;;;;;;14.20;8.18;;;;;;;10.75;76.18;102457.41;3574226;40;20367;-63
2022/10/11 07:53:49;;;;;;;19.30;7.57;;;;;;;11.04;75.88;102460.81;3573756;40;20076;-63
2022/10/11 07:56:23;;;;;;;17.83;6.70;;;;;;;11.28;74.01;102461.69;3573885;40;20063;-64
2022/10/11 07:58:56;;;;;;;14.27;6.25;;;;;;;10.95;72.27;102372.38;3574191;40;20371;-64
2022/10/11 08:01:23;;;;;;;13.30;6.20;;;;;;;11.19;72.46;102389.38;3571990;40;20051;-63
2022/10/11 08:03:50;;;;;;;11.02;6.30;;;;;;;11.92;72.73;102477.13;3573463;40;20134;-64
2022/10/11 08:06:21;;;;;;;14.48;6.70;;;;;;;11.80;70.49;102406.63;3573659;40;20101;-64
2022/10/11 08:08:48;;;;;;;13.77;5.90;;;;;;;11.55;69.38;102328.66;3574535;40;20272;-63
2022/10/11 08:11:30;;;;;;;14.93;5.40;;;;;;;11.76;68.92;102344.84;3577331;40;20061;-64
2022/10/11 08:13:58;;;;;;;16.05;5.15;;;;;;;12.72;67.51;102470.09;3576664;40;20127;-65
2022/10/11 08:16:24;;;;;;;15.85;5.60;;;;;;;12.36;67.30;102369.22;3574509;40;20060;-64
2022/10/11 08:18:50;;;;;;;14.93;5.18;;;;;;;12.68;67.89;102371.31;3576699;40;20071;-64
2022/10/11 08:21:17;;;;;;;11.57;5.85;;;;;;;13.50;66.87;102476.44;3575463;40;20068;-64
2022/10/11 08:23:44;;;;;;;12.07;5.30;;;;;;;13.70;65.60;102480.88;3580196;40;20052;-62
2022/10/11 08:26:11;;;;;;;10.52;4.57;;;;;;;13.89;65.14;102481.75;3574410;40;20056;-62
2022/10/11 08:28:37;;;;;;;10.88;4.55;;;;;;;14.01;64.33;102469.44;3575492;40;20452;-62
2022/10/11 08:31:03;;;;;;;12.82;4.50;;;;;;;14.35;64.63;102482.13;3579315;40;20064;-63
2022/10/11 08:33:29;;;;;;;10.05;4.70;;;;;;;14.09;63.84;102396.06;3575062;40;20280;-62
2022/10/11 08:35:56;;;;;;;10.02;5.20;;;;;;;14.85;62.91;102488.59;3575401;40;20112;-62
2022/10/11 08:38:22;;;;;;;11.18;4.70;;;;;;;14.94;61.99;102471.88;3574994;40;20048;-62
2022/10/11 08:40:58;;;;;;;9.52;4.50;;;;;;;15.30;60.95;102495.19;3589065;40;20060;-62
2022/10/11 08:44:07;;;;;;;9.52;4.47;;;;;;;15.46;59.80;102471.69;3576311;40;20134;-64
2022/10/11 08:46:34;;;;;;;14.35;3.72;;;;;;;15.02;59.51;102372.09;3575838;40;20056;-62
2022/10/11 08:49:01;;;;;;;7.45;3.50;;;;;;;15.20;57.39;102364.78;3575335;40;20380;-62
2022/10/11 08:51:44;;;;;;;8.73;3.50;;;;;;;16.06;57.49;102484.56;3574203;40;20053;-62
2022/10/11 08:54:33;;;;;;;11.48;3.83;;;;;;;16.24;56.58;102488.91;3576883;40;20410;-62
2022/10/11 08:57:04;;;;;;;12.32;4.00;;;;;;;16.42;57.15;102492.34;3579576;40;20064;-62
2022/10/11 08:59:43;;;;;;;9.95;3.88;;;;;;;16.70;56.43;102496.13;3576134;40;20048;-62
2022/10/11 09:02:28;;;;;;;9.57;3.20;;;;;;;16.89;56.01;102502.22;3578607;40;20064;-63
2022/10/11 09:04:55;;;;;;;10.35;3.15;;;;;;;17.05;53.96;102484.97;3577358;40;20053;-62
2022/10/11 09:08:08;;;;;;;8.23;3.00;;;;;;;17.38;52.82;102503.72;3574709;40;20060;-62
2022/10/11 09:10:57;;;;;;;8.13;2.90;;;;;;;17.63;51.45;102508.41;3578136;40;20051;-62
2022/10/11 09:14:05;;;;;;;13.23;3.38;;;;;;;17.75;49.84;102502.19;3580259;40;20299;-62
2022/10/11 09:16:38;;;;;;;13.00;3.10;;;;;;;17.82;51.53;102503.56;3575644;40;20052;-63
2022/10/11 09:19:41;;;;;;;6.65;2.60;;;;;;;18.08;49.31;102503.69;3582244;40;20056;-62
2022/10/11 09:22:37;;;;;;;9.20;3.40;;;;;;;18.19;49.32;102512.00;3579147;40;20125;-62
2022/10/11 09:25:48;;;;;;;6.82;2.15;;;;;;;18.28;50.38;102510.50;3580679;40;20046;-62
2022/10/11 09:29:04;;;;;;;9.18;2.35;;;;;;;18.20;50.67;102513.72;3573063;40;20110;-62
2022/10/11 09:31:30;;;;;;;7.53;2.72;;;;;;;18.22;50.54;102509.06;3577243;40;20044;-63
2022/10/11 09:34:08;;;;;;;8.95;2.25;;;;;;;18.17;49.13;102511.22;3575059;40;20126;-62
2022/10/11 09:37:19;;;;;;;8.23;2.60;;;;;;;18.09;50.46;102505.44;3577486;40;20056;-62
2022/10/11 09:39:56;;;;;;;9.65;2.75;;;;;;;17.44;49.96;102383.66;3582454;40;20086;-62
2022/10/11 09:42:22;;;;;;;8.35;2.80;;;;;;;17.42;50.28;102373.88;3574832;40;20115;-63
2022/10/11 09:44:50;;;;;;;9.70;3.10;;;;;;;18.15;49.34;102488.69;3578169;40;20056;-62
2022/10/11 09:47:28;;;;;;;8.10;2.55;;;;;;;18.34;49.72;102507.38;3574426;40;20411;-62
2022/10/11 09:50:14;;;;;;;12.30;2.63;;;;;;;18.52;49.55;102507.94;3581161;40;20383;-62
2022/10/11 09:52:51;;;;;;;11.52;2.75;;;;;;;18.55;48.07;102502.28;3576543;40;20053;-62
2022/10/11 09:55:41;;;;;;;9.25;2.55;;;;;;;18.62;46.05;102500.91;3575099;39;20097;-62
2022/10/11 09:58:32;;;;;;;8.45;2.47;;;;;;;18.64;45.99;102477.16;3579274;40;20033;-62
2022/10/11 10:01:11;;;;;;;9.45;2.22;;;;;;;19.05;45.51;102506.09;3579059;40;20112;-62
2022/10/11 10:03:42;;;;;;;11.05;2.35;;;;;;;19.19;44.06;102503.28;3574462;40;20088;-62
2022/10/11 10:06:24;;;;;;;10.25;2.03;;;;;;;19.30;44.84;102504.34;3574971;40;20354;-62
2022/10/11 10:08:50;;;;;;;7.53;2.10;;;;;;;19.38;40.82;102512.88;3575437;40;20089;-62
2022/10/11 10:11:18;;;;;;;9.43;2.22;;;;;;;18.85;43.05;102389.47;3577985;40;20073;-61
2022/10/11 10:13:54;;;;;;;8.25;2.38;;;;;;;19.76;42.94;102514.66;3579479;40;20056;-62
2022/10/11 10:16:29;;;;;;;7.63;2.22;;;;;;;19.97;43.19;102507.59;3580395;40;20300;-62
2022/10/11 10:19:02;;;;;;;9.13;2.25;;;;;;;20.00;42.30;102506.50;3578879;40;20048;-62
2022/10/11 10:21:34;;;;;;;;;;;;;;;20.00;40.13;102487.38;3584203;40;20059;-62
2022/10/11 10:24:07;;;;;;;8.57;2.20;;;;;;;19.45;41.51;102388.69;3577007;40;19951;-63
2022/10/11 10:26:34;;;;;;;8.52;2.15;;;;;;;20.08;41.55;102479.50;3574162;40;20059;-64
2022/10/11 10:29:08;;;;;;;9.70;2.22;;;;;;;20.33;41.46;102493.03;3574273;40;20065;-62
2022/10/11 10:31:52;;;;;;;9.20;2.20;;;;;;;20.48;41.10;102493.69;3573594;40;20481;-62
2022/10/11 10:34:38;;;;;;;11.57;2.05;;;;;;;20.40;38.57;102485.22;3582831;40;20053;-62
2022/10/11 10:37:33;;;;;;;7.85;1.95;;;;;;;20.62;38.57;102501.72;3573014;40;20056;-62
2022/10/11 10:40:19;;;;;;;6.15;1.83;;;;;;;20.78;36.52;102500.53;3574726;40;20052;-62
2022/10/11 10:42:45;;;;;;;7.40;2.10;;;;;;;20.85;38.09;102496.31;3576765;40;20083;-62
2022/10/11 10:45:17;;;;;;;9.32;2.17;;;;;;;20.98;37.47;102497.09;3583910;40;20072;-62
2022/10/11 10:47:50;;;;;;;6.22;1.80;;;;;;;21.05;39.08;102503.78;3575208;40;20395;-63
2022/10/11 10:50:48;;;;;;;8.07;2.20;;;;;;;21.10;38.17;102492.50;3578020;40;20052;-62
2022/10/11 10:53:36;;;;;;;6.70;2.05;;;;;;;21.40;37.14;102496.53;3573954;40;20092;-62
2022/10/11 10:56:31;;;;;;;5.80;1.90;;;;;;;21.44;37.50;102474.28;3574209;40;20060;-62
2022/10/11 10:59:04;;;;;;;7.22;2.10;;;;;;;21.65;35.52;102489.91;3573680;40;20165;-62
2022/10/11 11:01:38;;;;;;;6.13;1.98;;;;;;;21.69;35.61;102486.81;3574716;40;20391;-63
2022/10/11 11:04:31;;;;;;;6.55;1.90;;;;;;;21.72;35.58;102483.78;3574239;40;20056;-62
2022/10/11 11:07:23;;;;;;;6.95;1.70;;;;;;;21.76;34.95;102481.69;3581093;40;20065;-63
2022/10/11 11:10:02;;;;;;;7.95;1.92;;;;;;;21.86;34.58;102493.63;3575699;40;20044;-63
2022/10/11 11:12:46;;;;;;;7.47;2.10;;;;;;;21.86;35.42;102476.31;3576312;40;20387;-62
2022/10/11 11:15:18;;;;;;;8.60;2.00;;;;;;;22.03;35.28;102487.56;3576429;40;20061;-63
2022/10/11 11:18:28;;;;;;;7.25;2.17;;;;;;;22.20;34.54;102479.81;3573378;40;20056;-63
2022/10/11 11:21:21;;;;;;;5.97;2.03;;;;;;;22.36;32.04;102480.28;3572834;40;20106;-62
2022/10/11 11:24:05;;;;;;;14.95;5.63;;;;;;;22.48;33.11;102479.19;3578158;40;20052;-63
2022/10/11 11:26:55;;;;;;;;;;;;;;;22.61;33.54;102469.91;3575849;40;20049;-63
2022/10/11 11:29:42;;;;;;;8.25;1.95;;;;;;;22.75;33.52;102466.00;3574879;40;19928;-62
2022/10/11 11:32:25;;;;;;;11.70;2.08;;;;;;;22.66;33.45;102470.41;3575478;40;20053;-63
2022/10/11 11:35:02;;;;;;;8.07;2.20;;;;;;;22.70;34.42;102467.25;3575065;40;20048;-63
2022/10/11 11:37:36;;;;;;;5.68;2.10;;;;;;;22.63;34.08;102465.19;3574950;40;20108;-62
2022/10/11 11:40:37;;;;;;;7.53;1.67;;;;;;;22.67;34.39;102461.16;3575159;40;20060;-62
2022/10/11 11:43:49;;;;;;;8.32;2.03;;;;;;;22.93;32.96;102459.78;3556420;40;20056;-62
2022/10/11 11:46:23;;;;;;;9.73;2.20;;;;;;;23.05;33.61;102462.44;3573619;40;20057;-62
2022/10/11 11:48:55;;;;;;;8.50;2.10;;;;;;;23.20;31.10;102447.34;3573805;40;20065;-62
2022/10/11 11:51:32;;;;;;;8.05;2.28;;;;;;;23.18;31.69;102454.84;3573583;40;20436;-63
2022/10/11 11:54:27;;;;;;;10.23;2.50;;;;;;;22.42;32.30;102341.84;3573047;40;20073;-63